createdAt,value
2023-02-02T00:00:31.359Z,76.57
2023-02-02T00:01:31.342Z,76.67
2023-02-02T00:02:31.377Z,76.15
2023-02-02T00:03:31.362Z,76.98
2023-02-02T00:04:31.313Z,76.46
2023-02-02T00:05:31.301Z,76.26
2023-02-02T00:06:31.345Z,76.26
2023-02-02T00:07:31.293Z,76.46
2023-02-02T00:08:31.281Z,76.78
2023-02-02T00:09:31.271Z,77.19
2023-02-02T00:10:31.254Z,76.98
2023-02-02T00:11:31.248Z,76.26
2023-02-02T00:12:31.256Z,76.05
2023-02-02T00:13:31.222Z,75.74
2023-02-02T00:14:31.245Z,76.46
2023-02-02T00:15:31.226Z,76.67
2023-02-02T00:16:31.376Z,76.78
2023-02-02T00:17:31.182Z,76.26
2023-02-02T00:18:31.185Z,76.15
2023-02-02T00:19:31.169Z,76.67
2023-02-02T00:20:31.164Z,76.67
2023-02-02T00:21:31.138Z,76.98
2023-02-02T00:22:31.159Z,76.88
2023-02-02T00:23:31.130Z,76.98
2023-02-02T00:24:31.926Z,76.78
2023-02-02T00:25:31.096Z,76.71
2023-02-02T00:26:31.124Z,76.05
2023-02-02T00:27:31.099Z,76.15
2023-02-02T00:28:31.076Z,75.74
2023-02-02T00:29:31.720Z,75.74
2023-02-02T00:30:31.080Z,76.05
2023-02-02T00:31:31.075Z,76.05
2023-02-02T00:32:31.414Z,75.95
2023-02-02T00:33:31.020Z,75.74
2023-02-02T00:34:31.039Z,75.84
2023-02-02T00:35:30.999Z,76.46
2023-02-02T00:36:30.997Z,76.78
2023-02-02T00:37:30.980Z,76.67
2023-02-02T00:38:30.979Z,76.46
2023-02-02T00:39:30.963Z,76.15
2023-02-02T00:40:30.956Z,76.26
2023-02-02T00:41:30.953Z,76.57
2023-02-02T00:42:30.939Z,76.46
2023-02-02T00:43:30.919Z,76.78
2023-02-02T00:44:30.922Z,76.57
2023-02-02T00:45:30.939Z,76.57
2023-02-02T00:46:30.913Z,76.46
2023-02-02T00:47:30.885Z,76.57
2023-02-02T00:48:30.872Z,76.26
2023-02-02T00:49:30.859Z,76.46
2023-02-02T00:50:30.864Z,76.57
2023-02-02T00:51:30.833Z,76.78
2023-02-02T00:52:30.845Z,76.46
2023-02-02T00:53:30.821Z,76.88
2023-02-02T00:54:30.802Z,76.67
2023-02-02T00:55:30.801Z,77.19
2023-02-02T00:56:30.793Z,77.09
2023-02-02T00:57:30.780Z,76.88
2023-02-02T00:58:30.763Z,76.98
2023-02-02T00:59:30.860Z,77.09
2023-02-02T01:00:30.749Z,77.29
2023-02-02T01:01:30.754Z,77.19
2023-02-02T01:02:30.779Z,77.29
2023-02-02T01:03:30.711Z,77.50
2023-02-02T01:04:30.734Z,77.09
2023-02-02T01:05:30.702Z,77.40
2023-02-02T01:06:30.695Z,77.40
2023-02-02T01:07:30.688Z,78.02
2023-02-02T01:08:30.663Z,77.40
2023-02-02T01:09:30.652Z,76.98
2023-02-02T01:10:30.653Z,77.19
2023-02-02T01:11:30.716Z,77.81
2023-02-02T01:12:30.624Z,77.40
2023-02-02T01:13:30.604Z,77.29
2023-02-02T01:14:30.639Z,77.61
2023-02-02T01:15:30.626Z,77.61
2023-02-02T01:16:30.727Z,77.92
2023-02-02T01:17:30.574Z,78.06
2023-02-02T01:18:30.582Z,77.95
2023-02-02T01:19:30.546Z,77.71
2023-02-02T01:20:30.552Z,77.61
2023-02-02T01:21:30.533Z,78.16
2023-02-02T01:22:30.545Z,77.71
2023-02-02T01:23:30.509Z,77.81
2023-02-02T01:24:30.528Z,77.61
2023-02-02T01:25:30.501Z,77.61
2023-02-02T01:26:30.577Z,77.71
2023-02-02T01:27:30.464Z,78.02
2023-02-02T01:28:30.530Z,78.23
2023-02-02T01:29:30.448Z,77.81
2023-02-02T01:30:30.437Z,78.23
2023-02-02T01:31:30.462Z,78.12
2023-02-02T01:32:30.427Z,78.16
2023-02-02T01:33:30.413Z,78.37
2023-02-02T01:34:30.408Z,78.68
2023-02-02T01:35:30.395Z,78.68
2023-02-02T01:36:30.389Z,78.37
2023-02-02T01:37:30.364Z,78.58
2023-02-02T01:38:30.428Z,78.58
2023-02-02T01:39:30.350Z,78.47
2023-02-02T01:40:30.348Z,78.68
2023-02-02T01:41:30.319Z,78.37
2023-02-02T01:42:30.320Z,78.06
2023-02-02T01:43:30.301Z,78.37
2023-02-02T01:44:30.300Z,78.37
2023-02-02T01:45:30.307Z,78.33
2023-02-02T01:46:30.280Z,78.06
2023-02-02T01:47:30.267Z,78.47
2023-02-02T01:48:30.278Z,78.58
2023-02-02T01:49:30.240Z,78.47
2023-02-02T01:50:30.240Z,78.47
2023-02-02T01:51:30.221Z,78.89
2023-02-02T01:52:30.224Z,78.99
2023-02-02T01:53:30.200Z,78.68
2023-02-02T01:54:30.202Z,78.68
2023-02-02T01:55:30.174Z,78.78
2023-02-02T01:56:30.182Z,78.89
2023-02-02T01:57:30.154Z,79.41
2023-02-02T01:58:30.162Z,79.71
2023-02-02T01:59:30.143Z,79.20
2023-02-02T02:00:30.143Z,79.30
2023-02-02T02:01:30.177Z,78.89
2023-02-02T02:02:30.180Z,78.78
2023-02-02T02:03:30.092Z,79.20
2023-02-02T02:04:30.094Z,77.95
2023-02-02T02:05:30.074Z,78.06
2023-02-02T02:06:30.077Z,78.37
2023-02-02T02:07:30.063Z,78.47
2023-02-02T02:08:30.067Z,78.89
2023-02-02T02:09:30.034Z,78.68
2023-02-02T02:10:30.042Z,79.10
2023-02-02T02:11:30.045Z,78.68
2023-02-02T02:12:30.021Z,78.99
2023-02-02T02:13:29.995Z,78.99
2023-02-02T02:14:30.005Z,78.99
2023-02-02T02:15:29.967Z,78.89
2023-02-02T02:16:30.007Z,79.30
2023-02-02T02:17:29.962Z,78.68
2023-02-02T02:18:30.284Z,78.68
2023-02-02T02:19:29.935Z,79.20
2023-02-02T02:20:29.927Z,79.41
2023-02-02T02:21:29.907Z,79.30
2023-02-02T02:22:29.906Z,78.89
2023-02-02T02:23:30.327Z,79.10
2023-02-02T02:24:29.898Z,78.99
2023-02-02T02:25:29.931Z,79.10
2023-02-02T02:26:29.943Z,79.41
2023-02-02T02:27:29.880Z,78.89
2023-02-02T02:28:29.848Z,79.20
2023-02-02T02:29:29.848Z,79.10
2023-02-02T02:30:29.838Z,79.10
2023-02-02T02:31:29.942Z,79.61
2023-02-02T02:32:29.831Z,79.71
2023-02-02T02:33:29.812Z,80.37
2023-02-02T02:34:29.788Z,79.71
2023-02-02T02:35:29.770Z,79.92
2023-02-02T02:36:29.772Z,79.92
2023-02-02T02:37:29.771Z,79.82
2023-02-02T02:38:29.750Z,79.82
2023-02-02T02:39:30.771Z,80.16
2023-02-02T02:40:29.732Z,79.96
2023-02-02T02:41:29.712Z,79.65
2023-02-02T02:42:29.716Z,80.06
2023-02-02T02:43:29.687Z,80.68
2023-02-02T02:44:29.698Z,80.58
2023-02-02T02:45:30.517Z,80.37
2023-02-02T02:46:29.708Z,80.27
2023-02-02T02:47:29.642Z,79.75
2023-02-02T02:48:29.660Z,79.71
2023-02-02T02:49:29.623Z,79.71
2023-02-02T02:50:29.623Z,80.23
2023-02-02T02:51:29.628Z,80.75
2023-02-02T02:52:29.610Z,80.23
2023-02-02T02:53:29.597Z,80.02
2023-02-02T02:54:29.592Z,80.23
2023-02-02T02:55:29.568Z,80.23
2023-02-02T02:56:29.595Z,80.54
2023-02-02T02:57:29.545Z,80.75
2023-02-02T02:58:29.634Z,80.85
2023-02-02T02:59:29.542Z,81.20
2023-02-02T03:00:29.538Z,81.51
2023-02-02T03:01:29.508Z,82.45
2023-02-02T03:02:29.527Z,82.55
2023-02-02T03:03:29.511Z,82.65
2023-02-02T03:04:29.478Z,82.14
2023-02-02T03:05:29.466Z,82.76
2023-02-02T03:06:29.526Z,83.07
2023-02-02T03:07:29.726Z,83.28
2023-02-02T03:08:29.439Z,84.42
2023-02-02T03:09:29.416Z,84.25
2023-02-02T03:10:29.434Z,85.08
2023-02-02T03:11:29.414Z,86.22
2023-02-02T03:12:30.207Z,84.88
2023-02-02T03:13:29.396Z,84.15
2023-02-02T03:14:29.389Z,84.56
2023-02-02T03:15:29.390Z,84.36
2023-02-02T03:16:29.357Z,84.67
2023-02-02T03:17:29.373Z,85.19
2023-02-02T03:18:29.361Z,84.77
2023-02-02T03:19:29.336Z,85.60
2023-02-02T03:20:29.321Z,85.91
2023-02-02T03:21:29.312Z,85.81
2023-02-02T03:22:29.300Z,87.16
2023-02-02T03:23:29.309Z,86.47
2023-02-02T03:24:29.290Z,86.57
2023-02-02T03:25:29.274Z,86.47
2023-02-02T03:26:29.357Z,87.40
2023-02-02T03:27:29.240Z,87.71
2023-02-02T03:28:29.897Z,87.61
2023-02-02T03:29:29.348Z,87.19
2023-02-02T03:30:29.315Z,88.02
2023-02-02T03:31:29.229Z,87.92
2023-02-02T03:32:29.198Z,88.13
2023-02-02T03:33:29.192Z,88.75
2023-02-02T03:34:29.186Z,88.65
2023-02-02T03:35:29.161Z,88.75
2023-02-02T03:36:29.169Z,89.06
2023-02-02T03:37:29.152Z,88.34
2023-02-02T03:38:29.141Z,87.92
2023-02-02T03:39:29.117Z,88.44
2023-02-02T03:40:29.115Z,88.65
2023-02-02T03:41:29.113Z,88.65
2023-02-02T03:42:29.103Z,89.27
2023-02-02T03:43:29.846Z,88.65
2023-02-02T03:44:29.074Z,88.34
2023-02-02T03:45:29.067Z,89.27
2023-02-02T03:46:29.156Z,88.85
2023-02-02T03:47:29.044Z,88.75
2023-02-02T03:48:29.136Z,88.44
2023-02-02T03:49:29.025Z,88.54
2023-02-02T03:50:29.005Z,88.34
2023-02-02T03:51:29.016Z,88.96
2023-02-02T03:52:28.985Z,88.34
2023-02-02T03:53:29.805Z,87.30
2023-02-02T03:54:28.964Z,88.44
2023-02-02T03:55:28.971Z,87.71
2023-02-02T03:56:28.956Z,87.92
2023-02-02T03:57:29.734Z,87.30
2023-02-02T03:58:28.922Z,88.23
2023-02-02T03:59:28.916Z,88.96
2023-02-02T04:00:28.909Z,89.17
2023-02-02T04:01:28.960Z,88.75
2023-02-02T04:02:28.921Z,88.54
2023-02-02T04:03:28.892Z,88.54
2023-02-02T04:04:28.860Z,88.85
2023-02-02T04:05:28.858Z,89.06
2023-02-02T04:06:28.842Z,89.37
2023-02-02T04:07:28.839Z,88.85
2023-02-02T04:08:28.822Z,88.96
2023-02-02T04:09:28.830Z,88.34
2023-02-02T04:10:28.868Z,88.23
2023-02-02T04:11:28.798Z,87.92
2023-02-02T04:12:28.781Z,88.34
2023-02-02T04:13:28.768Z,88.75
2023-02-02T04:14:28.749Z,89.48
2023-02-02T04:15:28.764Z,88.65
2023-02-02T04:16:29.394Z,88.65
2023-02-02T04:17:28.748Z,88.54
2023-02-02T04:18:28.720Z,88.65
2023-02-02T04:19:28.712Z,88.34
2023-02-02T04:20:28.694Z,88.44
2023-02-02T04:21:28.721Z,88.96
2023-02-02T04:22:28.673Z,89.17
2023-02-02T04:23:28.703Z,88.85
2023-02-02T04:24:28.686Z,88.96
2023-02-02T04:25:28.653Z,88.65
2023-02-02T04:26:28.792Z,88.75
2023-02-02T04:27:28.657Z,88.96
2023-02-02T04:28:28.635Z,88.85
2023-02-02T04:29:28.607Z,87.92
2023-02-02T04:30:28.596Z,87.82
2023-02-02T04:31:28.609Z,87.09
2023-02-02T04:32:28.563Z,86.88
2023-02-02T04:33:28.589Z,86.68
2023-02-02T04:34:29.384Z,85.91
2023-02-02T04:35:28.546Z,86.02
2023-02-02T04:36:28.522Z,85.29
2023-02-02T04:37:28.545Z,85.91
2023-02-02T04:38:28.527Z,86.64
2023-02-02T04:39:28.515Z,86.22
2023-02-02T04:40:28.485Z,86.43
2023-02-02T04:41:28.486Z,86.43
2023-02-02T04:42:28.477Z,86.54
2023-02-02T04:43:29.269Z,86.85
2023-02-02T04:44:28.448Z,87.05
2023-02-02T04:45:28.549Z,87.05
2023-02-02T04:46:28.437Z,87.09
2023-02-02T04:47:28.894Z,86.99
2023-02-02T04:48:28.416Z,86.57
2023-02-02T04:49:28.437Z,86.26
2023-02-02T04:50:28.392Z,86.22
2023-02-02T04:51:28.390Z,85.81
2023-02-02T04:52:28.380Z,86.22
2023-02-02T04:53:28.370Z,85.91
2023-02-02T04:54:28.349Z,85.60
2023-02-02T04:55:28.368Z,85.60
2023-02-02T04:56:28.326Z,85.50
2023-02-02T04:57:28.329Z,86.02
2023-02-02T04:58:28.316Z,86.02
2023-02-02T04:59:28.304Z,85.60
2023-02-02T05:00:28.289Z,85.19
2023-02-02T05:01:28.323Z,85.08
2023-02-02T05:02:28.279Z,85.19
2023-02-02T05:03:28.269Z,84.98
2023-02-02T05:04:28.318Z,84.98
2023-02-02T05:05:28.239Z,85.39
2023-02-02T05:06:28.229Z,85.08
2023-02-02T05:07:28.224Z,84.88
2023-02-02T05:08:28.202Z,84.88
2023-02-02T05:09:28.212Z,85.29
2023-02-02T05:10:28.191Z,85.60
2023-02-02T05:11:28.453Z,85.29
2023-02-02T05:12:28.162Z,85.53
2023-02-02T05:13:28.161Z,84.91
2023-02-02T05:14:28.144Z,85.39
2023-02-02T05:15:28.950Z,84.98
2023-02-02T05:16:29.210Z,85.33
2023-02-02T05:17:28.123Z,84.36
2023-02-02T05:18:28.103Z,84.46
2023-02-02T05:19:28.114Z,84.67
2023-02-02T05:20:28.090Z,84.77
2023-02-02T05:21:28.091Z,84.98
2023-02-02T05:22:28.068Z,85.50
2023-02-02T05:23:28.054Z,85.08
2023-02-02T05:24:28.069Z,84.88
2023-02-02T05:25:28.053Z,85.50
2023-02-02T05:26:28.050Z,85.33
2023-02-02T05:27:28.015Z,85.74
2023-02-02T05:28:28.016Z,85.43
2023-02-02T05:29:27.997Z,85.74
2023-02-02T05:30:27.991Z,85.39
2023-02-02T05:31:28.001Z,84.98
2023-02-02T05:32:27.978Z,85.08
2023-02-02T05:33:27.956Z,84.25
2023-02-02T05:34:27.946Z,83.94
2023-02-02T05:35:27.955Z,84.15
2023-02-02T05:36:27.926Z,84.46
2023-02-02T05:37:27.942Z,84.67
2023-02-02T05:38:27.946Z,85.29
2023-02-02T05:39:28.742Z,85.29
2023-02-02T05:40:27.882Z,86.02
2023-02-02T05:41:27.895Z,85.85
2023-02-02T05:42:27.857Z,85.85
2023-02-02T05:43:27.869Z,85.74
2023-02-02T05:44:27.869Z,85.33
2023-02-02T05:45:27.829Z,85.39
2023-02-02T05:46:27.817Z,84.46
2023-02-02T05:47:27.860Z,84.77
2023-02-02T05:48:27.807Z,84.88
2023-02-02T05:49:27.834Z,85.08
2023-02-02T05:50:27.779Z,85.39
2023-02-02T05:51:27.791Z,85.29
2023-02-02T05:52:27.761Z,85.19
2023-02-02T05:53:27.791Z,84.81
2023-02-02T05:54:27.751Z,84.77
2023-02-02T05:55:27.787Z,84.56
2023-02-02T05:56:27.714Z,84.46
2023-02-02T05:57:27.715Z,85.08
2023-02-02T05:58:27.692Z,85.19
2023-02-02T05:59:27.694Z,85.29
2023-02-02T06:00:27.703Z,84.56
2023-02-02T06:01:27.682Z,84.67
2023-02-02T06:02:27.652Z,84.98
2023-02-02T06:03:27.817Z,84.25
2023-02-02T06:04:27.634Z,84.46
2023-02-02T06:05:27.642Z,84.46
2023-02-02T06:06:27.651Z,83.94
2023-02-02T06:07:27.620Z,83.73
2023-02-02T06:08:27.591Z,83.94
2023-02-02T06:09:27.583Z,84.25
2023-02-02T06:10:27.572Z,83.73
2023-02-02T06:11:27.586Z,83.84
2023-02-02T06:12:27.581Z,84.05
2023-02-02T06:13:27.562Z,84.67
2023-02-02T06:14:27.526Z,83.94
2023-02-02T06:15:27.999Z,83.84
2023-02-02T06:16:27.504Z,83.94
2023-02-02T06:17:27.526Z,84.56
2023-02-02T06:18:28.311Z,84.15
2023-02-02T06:19:27.487Z,83.94
2023-02-02T06:20:27.455Z,83.84
2023-02-02T06:21:27.473Z,83.42
2023-02-02T06:22:27.460Z,83.22
2023-02-02T06:23:27.471Z,83.53
2023-02-02T06:24:27.433Z,83.32
2023-02-02T06:25:27.646Z,83.22
2023-02-02T06:26:27.459Z,83.63
2023-02-02T06:27:27.397Z,84.05
2023-02-02T06:28:27.397Z,84.25
2023-02-02T06:29:27.380Z,83.73
2023-02-02T06:30:27.372Z,83.84
2023-02-02T06:31:27.479Z,84.05
2023-02-02T06:32:27.366Z,84.15
2023-02-02T06:33:27.579Z,83.53
2023-02-02T06:34:27.348Z,83.94
2023-02-02T06:35:27.576Z,84.36
2023-02-02T06:36:27.299Z,84.77
2023-02-02T06:37:29.645Z,84.46
2023-02-02T06:38:27.281Z,84.15
2023-02-02T06:39:27.313Z,84.15
2023-02-02T06:40:27.267Z,84.05
2023-02-02T06:41:27.283Z,84.36
2023-02-02T06:42:27.255Z,84.15
2023-02-02T06:43:27.240Z,84.05
2023-02-02T06:44:27.231Z,83.84
2023-02-02T06:45:27.407Z,84.56
2023-02-02T06:46:27.344Z,84.36
2023-02-02T06:47:27.203Z,83.73
2023-02-02T06:48:27.210Z,83.32
2023-02-02T06:49:27.182Z,83.63
2023-02-02T06:50:27.155Z,83.42
2023-02-02T06:51:27.171Z,82.70
2023-02-02T06:52:27.133Z,82.39
2023-02-02T06:53:27.151Z,82.80
2023-02-02T06:54:27.134Z,83.53
2023-02-02T06:55:27.449Z,83.73
2023-02-02T06:56:27.101Z,84.25
2023-02-02T06:57:27.096Z,84.56
2023-02-02T06:58:27.074Z,84.88
2023-02-02T06:59:27.862Z,84.46
2023-02-02T07:00:27.843Z,84.15
2023-02-02T07:01:27.122Z,84.29
2023-02-02T07:02:27.067Z,84.50
2023-02-02T07:03:27.045Z,84.91
2023-02-02T07:04:27.033Z,84.60
2023-02-02T07:05:30.013Z,84.60
2023-02-02T07:06:26.986Z,84.60
2023-02-02T07:07:26.994Z,84.36
2023-02-02T07:08:27.472Z,84.05
2023-02-02T07:09:26.989Z,84.25
2023-02-02T07:11:14.738Z,84.46
2023-02-02T07:11:27.946Z,83.63
2023-02-02T07:12:26.960Z,83.84
2023-02-02T07:13:27.106Z,83.63
2023-02-02T07:14:27.102Z,83.42
2023-02-02T07:15:27.043Z,83.53
2023-02-02T07:16:26.895Z,83.32
2023-02-02T07:17:26.919Z,83.53
2023-02-02T07:18:26.867Z,83.38
2023-02-02T07:19:26.899Z,83.53
2023-02-02T07:20:26.854Z,83.53
2023-02-02T07:21:26.850Z,83.07
2023-02-02T07:22:26.992Z,82.76
2023-02-02T07:23:26.824Z,82.55
2023-02-02T07:24:26.797Z,82.03
2023-02-02T07:25:27.155Z,82.14
2023-02-02T07:26:26.802Z,82.03
2023-02-02T07:27:26.779Z,81.93
2023-02-02T07:28:26.770Z,82.03
2023-02-02T07:29:26.763Z,82.55
2023-02-02T07:30:26.775Z,82.14
2023-02-02T07:31:26.813Z,81.20
2023-02-02T07:32:26.738Z,81.79
2023-02-02T07:33:26.711Z,81.79
2023-02-02T07:34:26.712Z,82.20
2023-02-02T07:35:26.809Z,81.48
2023-02-02T07:36:26.680Z,80.65
2023-02-02T07:37:26.673Z,80.44
2023-02-02T07:38:26.662Z,80.44
2023-02-02T07:39:26.652Z,80.96
2023-02-02T07:40:27.221Z,80.85
2023-02-02T07:41:26.633Z,81.06
2023-02-02T07:42:26.621Z,81.06
2023-02-02T07:43:26.612Z,80.13
2023-02-02T07:44:26.627Z,80.13
2023-02-02T07:45:28.038Z,80.33
2023-02-02T07:46:26.692Z,80.65
2023-02-02T07:47:26.583Z,80.44
2023-02-02T07:48:26.559Z,80.33
2023-02-02T07:49:26.875Z,80.23
2023-02-02T07:50:26.560Z,80.09
2023-02-02T07:51:26.550Z,80.09
2023-02-02T07:52:26.547Z,80.40
2023-02-02T07:53:26.514Z,80.19
2023-02-02T07:54:26.498Z,80.09
2023-02-02T07:55:26.796Z,79.58
2023-02-02T07:56:26.471Z,79.99
2023-02-02T07:57:26.489Z,80.40
2023-02-02T07:58:26.467Z,79.88
2023-02-02T07:59:26.458Z,80.19
2023-02-02T08:00:26.632Z,80.19
2023-02-02T08:01:26.651Z,80.30
2023-02-02T08:02:26.633Z,80.09
2023-02-02T08:03:26.508Z,80.30
2023-02-02T08:04:26.417Z,80.61
2023-02-02T08:05:26.847Z,80.30
2023-02-02T08:06:26.387Z,79.68
2023-02-02T08:07:26.368Z,79.99
2023-02-02T08:08:26.368Z,80.09
2023-02-02T08:09:26.357Z,80.82
2023-02-02T08:10:26.362Z,80.82
2023-02-02T08:11:27.126Z,80.09
2023-02-02T08:12:27.568Z,80.09
2023-02-02T08:13:26.391Z,79.99
2023-02-02T08:14:26.300Z,80.16
2023-02-02T08:15:26.571Z,80.05
2023-02-02T08:16:26.369Z,80.36
2023-02-02T08:17:26.273Z,80.05
2023-02-02T08:18:26.264Z,80.26
2023-02-02T08:19:26.241Z,79.85
2023-02-02T08:20:26.251Z,79.23
2023-02-02T08:21:26.228Z,79.33
2023-02-02T08:22:26.230Z,79.74
2023-02-02T08:23:26.210Z,79.02
2023-02-02T08:24:26.211Z,79.09
2023-02-02T08:25:26.514Z,78.26
2023-02-02T08:26:26.273Z,78.47
2023-02-02T08:27:26.172Z,77.64
2023-02-02T08:28:26.243Z,77.84
2023-02-02T08:29:26.136Z,77.74
2023-02-02T08:30:26.289Z,77.64
2023-02-02T08:31:26.215Z,76.91
2023-02-02T08:32:26.124Z,77.12
2023-02-02T08:33:26.103Z,76.91
2023-02-02T08:34:26.120Z,77.01
2023-02-02T08:35:26.388Z,76.57
2023-02-02T08:36:26.094Z,76.36
2023-02-02T08:37:26.065Z,75.74
2023-02-02T08:38:26.062Z,75.95
2023-02-02T08:39:26.045Z,75.32
2023-02-02T08:40:26.062Z,75.43
2023-02-02T08:41:26.036Z,76.36
2023-02-02T08:42:26.027Z,75.84
2023-02-02T08:43:26.004Z,75.12
2023-02-02T08:44:26.421Z,75.95
2023-02-02T08:46:03.095Z,76.15
2023-02-02T08:46:27.052Z,76.15
2023-02-02T08:47:25.955Z,76.57
2023-02-02T08:48:26.207Z,75.84
2023-02-02T08:49:25.946Z,75.84
2023-02-02T08:50:25.935Z,76.05
2023-02-02T08:51:26.105Z,75.95
2023-02-02T08:52:26.041Z,76.15
2023-02-02T08:53:25.934Z,75.74
2023-02-02T08:54:25.937Z,76.26
2023-02-02T08:55:26.277Z,76.05
2023-02-02T08:56:25.885Z,75.74
2023-02-02T08:57:25.848Z,76.15
2023-02-02T08:58:25.858Z,75.43
2023-02-02T08:59:25.827Z,75.84
2023-02-02T09:00:26.115Z,76.26
2023-02-02T09:01:25.902Z,75.95
2023-02-02T09:02:25.890Z,75.95
2023-02-02T09:03:25.815Z,76.05
2023-02-02T09:04:25.795Z,76.05
2023-02-02T09:05:26.060Z,76.36
2023-02-02T09:06:25.792Z,76.57
2023-02-02T09:07:25.750Z,76.46
2023-02-02T09:08:25.779Z,76.32
2023-02-02T09:09:25.750Z,76.32
2023-02-02T09:10:25.759Z,76.22
2023-02-02T09:11:26.237Z,76.36
2023-02-02T09:12:25.702Z,76.15
2023-02-02T09:13:25.691Z,76.01
2023-02-02T09:14:25.681Z,76.74
2023-02-02T09:15:26.306Z,76.32
2023-02-02T09:16:25.961Z,76.64
2023-02-02T09:17:25.643Z,76.64
2023-02-02T09:18:25.643Z,76.12
2023-02-02T09:19:25.622Z,76.43
2023-02-02T09:20:26.430Z,76.22
2023-02-02T09:21:25.612Z,76.22
2023-02-02T09:22:27.937Z,76.12
2023-02-02T09:23:25.589Z,76.43
2023-02-02T09:24:26.074Z,75.91
2023-02-02T09:25:25.985Z,76.01
2023-02-02T09:26:25.831Z,75.78
2023-02-02T09:27:25.541Z,75.60
2023-02-02T09:28:25.554Z,75.88
2023-02-02T09:29:26.341Z,76.81
2023-02-02T09:30:25.526Z,75.98
2023-02-02T09:31:25.603Z,75.46
2023-02-02T09:32:25.513Z,75.05
2023-02-02T09:33:26.293Z,75.57
2023-02-02T09:34:25.489Z,75.46
2023-02-02T09:35:25.986Z,74.95
2023-02-02T09:36:25.482Z,75.15
2023-02-02T09:37:25.445Z,75.05
2023-02-02T09:38:26.240Z,75.26
2023-02-02T09:39:25.438Z,75.26
2023-02-02T09:40:25.429Z,75.01
2023-02-02T09:41:25.397Z,75.53
2023-02-02T09:42:25.408Z,74.40
2023-02-02T09:43:25.378Z,73.57
2023-02-02T09:44:25.379Z,73.67
2023-02-02T09:45:25.914Z,74.08
2023-02-02T09:46:25.942Z,74.19
2023-02-02T09:47:25.341Z,73.77
2023-02-02T09:48:25.382Z,73.67
2023-02-02T09:49:25.467Z,73.36
2023-02-02T09:50:25.310Z,73.54
2023-02-02T09:51:25.311Z,72.81
2023-02-02T09:52:25.291Z,72.81
2023-02-02T09:53:25.288Z,73.22
2023-02-02T09:54:25.282Z,73.64
2023-02-02T09:55:25.602Z,73.33
2023-02-02T09:56:26.041Z,72.61
2023-02-02T09:57:25.580Z,72.50
2023-02-02T09:58:25.231Z,72.71
2023-02-02T09:59:25.224Z,73.50
2023-02-02T10:00:25.211Z,73.29
2023-02-02T10:01:25.290Z,72.36
2023-02-02T10:02:25.183Z,72.67
2023-02-02T10:03:25.172Z,72.57
2023-02-02T10:04:25.185Z,73.29
2023-02-02T10:05:25.467Z,72.57
2023-02-02T10:06:25.145Z,72.26
2023-02-02T10:07:25.121Z,72.88
2023-02-02T10:08:34.297Z,72.47
2023-02-02T10:09:26.109Z,72.47
2023-02-02T10:10:25.131Z,72.85
2023-02-02T10:11:25.087Z,72.06
2023-02-02T10:12:25.073Z,72.36
2023-02-02T10:13:25.064Z,72.26
2023-02-02T10:14:25.135Z,72.67
2023-02-02T10:15:25.409Z,72.36
2023-02-02T10:16:25.203Z,72.57
2023-02-02T10:17:25.025Z,72.16
2023-02-02T10:18:25.053Z,72.47
2023-02-02T10:19:25.155Z,72.47
2023-02-02T10:20:25.520Z,71.85
2023-02-02T10:21:24.994Z,72.47
2023-02-02T10:22:25.084Z,72.78
2023-02-02T10:23:24.964Z,72.67
2023-02-02T10:24:24.955Z,73.50
2023-02-02T10:25:24.964Z,72.57
2023-02-02T10:26:24.976Z,72.47
2023-02-02T10:27:24.937Z,72.78
2023-02-02T10:28:24.930Z,72.06
2023-02-02T10:29:24.901Z,72.57
2023-02-02T10:30:25.306Z,72.85
2023-02-02T10:31:24.971Z,72.74
2023-02-02T10:32:24.875Z,71.85
2023-02-02T10:33:24.848Z,71.75
2023-02-02T10:34:24.865Z,71.85
2023-02-02T10:35:24.859Z,72.16
2023-02-02T10:36:24.829Z,72.85
2023-02-02T10:37:24.850Z,72.64
2023-02-02T10:38:24.820Z,71.41
2023-02-02T10:39:24.807Z,71.61
2023-02-02T10:40:25.122Z,72.23
2023-02-02T10:41:24.771Z,71.51
2023-02-02T10:42:24.771Z,72.02
2023-02-02T10:43:24.752Z,72.13
2023-02-02T10:44:24.756Z,73.02
2023-02-02T10:45:24.723Z,72.19
2023-02-02T10:46:25.556Z,71.58
2023-02-02T10:47:24.711Z,71.41
2023-02-02T10:48:24.758Z,71.61
2023-02-02T10:49:24.684Z,72.02
2023-02-02T10:50:25.031Z,71.61
2023-02-02T10:51:24.672Z,71.81
2023-02-02T10:52:24.675Z,71.92
2023-02-02T10:53:24.642Z,72.23
2023-02-02T10:54:24.649Z,72.02
2023-02-02T10:55:24.740Z,72.23
2023-02-02T10:56:24.821Z,72.61
2023-02-02T10:57:24.625Z,71.99
2023-02-02T10:58:24.602Z,72.19
2023-02-02T10:59:24.624Z,72.40
2023-02-02T11:00:25.869Z,71.06
2023-02-02T11:01:24.697Z,71.89
2023-02-02T11:02:24.626Z,72.09
2023-02-02T11:03:24.555Z,72.13
2023-02-02T11:04:24.548Z,72.13
2023-02-02T11:05:24.591Z,72.02
2023-02-02T11:06:24.530Z,72.74
2023-02-02T11:07:24.509Z,73.05
2023-02-02T11:08:24.541Z,73.39
2023-02-02T11:09:25.289Z,73.29
2023-02-02T11:10:24.790Z,73.39
2023-02-02T11:11:24.461Z,73.50
2023-02-02T11:12:24.470Z,72.88
2023-02-02T11:13:24.440Z,73.39
2023-02-02T11:14:24.454Z,74.12
2023-02-02T11:15:24.412Z,74.08
2023-02-02T11:16:25.697Z,72.99
2023-02-02T11:17:24.446Z,72.88
2023-02-02T11:18:24.388Z,73.05
2023-02-02T11:19:24.378Z,73.57
2023-02-02T11:20:24.733Z,72.74
2023-02-02T11:21:24.356Z,72.64
2023-02-02T11:22:24.371Z,72.81
2023-02-02T11:23:24.334Z,71.37
2023-02-02T11:24:24.324Z,72.30
2023-02-02T11:25:24.318Z,72.06
2023-02-02T11:26:24.328Z,72.27
2023-02-02T11:27:25.112Z,71.55
2023-02-02T11:28:24.291Z,71.44
2023-02-02T11:29:24.269Z,71.13
2023-02-02T11:30:24.643Z,71.30
2023-02-02T11:31:24.320Z,70.72
2023-02-02T11:32:24.274Z,71.03
2023-02-02T11:33:24.223Z,71.03
2023-02-02T11:34:24.238Z,71.51
2023-02-02T11:35:24.207Z,71.72
2023-02-02T11:36:24.207Z,71.37
2023-02-02T11:37:24.173Z,70.86
2023-02-02T11:38:24.173Z,70.28
2023-02-02T11:39:24.154Z,70.89
2023-02-02T11:40:24.785Z,71.27
2023-02-02T11:41:24.142Z,70.14
2023-02-02T11:42:24.136Z,70.55
2023-02-02T11:43:24.139Z,70.55
2023-02-02T11:44:24.138Z,69.70
2023-02-02T11:45:25.556Z,69.21
2023-02-02T11:46:24.131Z,69.93
2023-02-02T11:47:24.079Z,69.70
2023-02-02T11:48:24.087Z,69.18
2023-02-02T11:49:24.229Z,69.38
2023-02-02T11:50:24.444Z,69.07
2023-02-02T11:51:24.211Z,69.28
2023-02-02T11:52:24.037Z,69.38
2023-02-02T11:53:24.033Z,69.38
2023-02-02T11:54:24.823Z,69.49
2023-02-02T11:55:23.999Z,69.87
2023-02-02T11:56:23.990Z,69.87
2023-02-02T11:57:23.980Z,69.15
2023-02-02T11:58:23.980Z,68.63
2023-02-02T11:59:24.088Z,69.07
2023-02-02T12:00:24.282Z,68.74
2023-02-02T12:01:23.939Z,69.07
2023-02-02T12:02:23.966Z,68.98
2023-02-02T12:03:24.730Z,69.28
2023-02-02T12:04:24.008Z,69.07
2023-02-02T12:05:23.904Z,68.87
2023-02-02T12:06:23.915Z,68.35
2023-02-02T12:07:24.671Z,68.63
2023-02-02T12:08:24.283Z,68.74
2023-02-02T12:09:23.853Z,68.84
2023-02-02T12:10:24.233Z,68.74
2023-02-02T12:11:23.846Z,68.74
2023-02-02T12:12:24.640Z,68.84
2023-02-02T12:13:23.860Z,68.84
2023-02-02T12:14:23.803Z,68.94
2023-02-02T12:15:23.839Z,69.18
2023-02-02T12:16:24.642Z,69.66
2023-02-02T12:17:23.792Z,68.98
2023-02-02T12:18:23.754Z,69.38
2023-02-02T12:19:23.770Z,69.38
2023-02-02T12:20:24.039Z,68.87
2023-02-02T12:21:23.747Z,68.98
2023-02-02T12:22:23.729Z,69.79
2023-02-02T12:23:23.716Z,69.87
2023-02-02T12:24:23.708Z,69.15
2023-02-02T12:25:24.133Z,68.74
2023-02-02T12:26:23.683Z,68.74
2023-02-02T12:27:23.689Z,69.04
2023-02-02T12:28:23.663Z,69.04
2023-02-02T12:29:23.661Z,69.04
2023-02-02T12:30:24.058Z,68.63
2023-02-02T12:31:23.643Z,68.53
2023-02-02T12:32:23.642Z,68.94
2023-02-02T12:33:23.609Z,69.28
2023-02-02T12:34:23.591Z,69.46
2023-02-02T12:35:24.404Z,69.66
2023-02-02T12:36:23.581Z,69.59
2023-02-02T12:37:23.683Z,69.07
2023-02-02T12:38:23.560Z,69.46
2023-02-02T12:39:23.553Z,69.35
2023-02-02T12:40:23.677Z,69.04
2023-02-02T12:41:23.538Z,69.46
2023-02-02T12:42:23.522Z,69.56
2023-02-02T12:43:23.521Z,69.46
2023-02-02T12:44:23.491Z,69.66
2023-02-02T12:45:23.492Z,70.18
2023-02-02T12:46:23.578Z,70.48
2023-02-02T12:47:23.467Z,70.07
2023-02-02T12:48:23.463Z,70.18
2023-02-02T12:49:23.623Z,70.07
2023-02-02T12:50:23.772Z,69.87
2023-02-02T12:51:23.433Z,70.25
2023-02-02T12:52:23.443Z,70.35